SBGL/GIG METAR and TAF weather

Enter ICAO airport designator
Station Type Date Time Source
SBGL METAR 2022/11/27 08:00 UTC NOAA

SBGL 270800Z 29003KT 9999 SCT024 BKN032 BKN070 21/19 Q1011


Station Type Date Time Source
SBGL Decoded METAR 2022/11/27 08:00 UTC NOAA

Galeao, Brazil (SBGL) 22-49S 043-15W 42M
Nov 27, 2022 - 03:00 AM EST / 2022.11.27 0800 UTC
Wind: from the WNW (290 degrees) at 3 MPH (3 KT):0
Visibility: greater than 7 mile(s):0
Sky conditions: mostly cloudy
Temperature: 69 F (21 C)
Dew Point: 66 F (19 C)
Relative Humidity: 88%
Pressure (altimeter): 29.85 in. Hg (1011 hPa)
ob: SBGL 270800Z 29003KT 9999 SCT024 BKN032 BKN070 21/19 Q1011
cycle: 8

Station Type Date Time Source
SBGL TAF 2022/11/27 06:54 UTC NOAA

TAF SBGL 270050Z 2706/2812 15006KT 7000 BKN017 BKN030 TN21/2709Z TX26/2718Z
BECMG 2706/2708 32005KT
TEMPO 2708/2711 4000 BR BKN010
BECMG 2711/2713 24006KT
BECMG 2714/2717 10010KT
TEMPO 2719/2723 6000 TSRA BKN020 FEW025CB BKN033
BECMG 2723/2802 07006KT SCT010 BKN020 PROB40 2808/2811 4000 BR BKN010
RMK PHC

Example: see airport list